sensor_id;sensor_type;location;lat;lon;timestamp;P1;durP1;ratioP1;P2;durP2;ratioP2
14187;SDS011;7175;51.978;5.330;2023-04-28T00:02:14;20.07;;;18.77;;
14187;SDS011;7175;51.978;5.330;2023-04-28T00:04:42;19.53;;;18.23;;
14187;SDS011;7175;51.978;5.330;2023-04-28T00:07:11;20.20;;;18.90;;
14187;SDS011;7175;51.978;5.330;2023-04-28T00:09:39;19.67;;;18.37;;
14187;SDS011;7175;51.978;5.330;2023-04-28T00:12:07;20.20;;;18.90;;
14187;SDS011;7175;51.978;5.330;2023-04-28T00:14:35;19.60;;;18.30;;
14187;SDS011;7175;51.978;5.330;2023-04-28T00:17:03;19.10;;;17.90;;
14187;SDS011;7175;51.978;5.330;2023-04-28T00:19:32;19.70;;;18.37;;
14187;SDS011;7175;51.978;5.330;2023-04-28T00:22:00;19.33;;;18.03;;
14187;SDS011;7175;51.978;5.330;2023-04-28T00:24:28;18.90;;;17.70;;
14187;SDS011;7175;51.978;5.330;2023-04-28T00:26:57;18.67;;;17.47;;
14187;SDS011;7175;51.978;5.330;2023-04-28T00:29:27;18.63;;;17.43;;
14187;SDS011;7175;51.978;5.330;2023-04-28T00:31:55;18.70;;;17.50;;
14187;SDS011;7175;51.978;5.330;2023-04-28T00:34:23;18.70;;;17.50;;
14187;SDS011;7175;51.978;5.330;2023-04-28T00:36:52;19.30;;;18.00;;
14187;SDS011;7175;51.978;5.330;2023-04-28T00:39:20;18.60;;;17.40;;
14187;SDS011;7175;51.978;5.330;2023-04-28T00:41:48;19.70;;;18.30;;
14187;SDS011;7175;51.978;5.330;2023-04-28T00:44:16;19.77;;;18.47;;
14187;SDS011;7175;51.978;5.330;2023-04-28T00:46:44;19.60;;;18.30;;
14187;SDS011;7175;51.978;5.330;2023-04-28T00:49:13;20.20;;;18.80;;
14187;SDS011;7175;51.978;5.330;2023-04-28T00:51:42;19.90;;;18.50;;
14187;SDS011;7175;51.978;5.330;2023-04-28T00:54:13;20.47;;;19.00;;
14187;SDS011;7175;51.978;5.330;2023-04-28T00:56:41;20.77;;;19.27;;
14187;SDS011;7175;51.978;5.330;2023-04-28T00:59:09;19.70;;;18.30;;
14187;SDS011;7175;51.978;5.330;2023-04-28T01:01:37;20.00;;;18.60;;
14187;SDS011;7175;51.978;5.330;2023-04-28T01:04:06;20.30;;;18.80;;
14187;SDS011;7175;51.978;5.330;2023-04-28T01:06:34;20.33;;;18.87;;
14187;SDS011;7175;51.978;5.330;2023-04-28T01:09:03;19.97;;;18.67;;
14187;SDS011;7175;51.978;5.330;2023-04-28T01:11:34;19.20;;;17.90;;
14187;SDS011;7175;51.978;5.330;2023-04-28T01:14:02;19.50;;;18.20;;
14187;SDS011;7175;51.978;5.330;2023-04-28T01:16:30;20.57;;;18.87;;
14187;SDS011;7175;51.978;5.330;2023-04-28T01:18:58;19.93;;;18.63;;
14187;SDS011;7175;51.978;5.330;2023-04-28T01:21:27;18.70;;;17.50;;
14187;SDS011;7175;51.978;5.330;2023-04-28T01:23:59;18.90;;;17.70;;
14187;SDS011;7175;51.978;5.330;2023-04-28T01:26:27;19.20;;;17.90;;
14187;SDS011;7175;51.978;5.330;2023-04-28T01:28:55;18.90;;;17.70;;
14187;SDS011;7175;51.978;5.330;2023-04-28T01:31:23;18.93;;;17.73;;
14187;SDS011;7175;51.978;5.330;2023-04-28T01:33:51;18.93;;;17.73;;
14187;SDS011;7175;51.978;5.330;2023-04-28T01:36:19;20.00;;;18.70;;
14187;SDS011;7175;51.978;5.330;2023-04-28T01:38:48;20.43;;;19.03;;
14187;SDS011;7175;51.978;5.330;2023-04-28T01:41:18;19.30;;;18.00;;
14187;SDS011;7175;51.978;5.330;2023-04-28T01:43:46;19.17;;;17.97;;
14187;SDS011;7175;51.978;5.330;2023-04-28T01:46:14;19.10;;;17.90;;
14187;SDS011;7175;51.978;5.330;2023-04-28T01:48:42;19.50;;;18.20;;
14187;SDS011;7175;51.978;5.330;2023-04-28T01:51:10;19.63;;;18.33;;
14187;SDS011;7175;51.978;5.330;2023-04-28T01:53:38;20.10;;;18.80;;
14187;SDS011;7175;51.978;5.330;2023-04-28T01:56:06;19.50;;;18.20;;
14187;SDS011;7175;51.978;5.330;2023-04-28T01:58:35;19.40;;;18.10;;
14187;SDS011;7175;51.978;5.330;2023-04-28T02:01:03;20.00;;;18.70;;
14187;SDS011;7175;51.978;5.330;2023-04-28T02:03:31;19.80;;;18.50;;
14187;SDS011;7175;51.978;5.330;2023-04-28T02:06:00;20.60;;;19.10;;
14187;SDS011;7175;51.978;5.330;2023-04-28T02:08:28;19.97;;;18.67;;
14187;SDS011;7175;51.978;5.330;2023-04-28T02:10:56;20.23;;;18.90;;
14187;SDS011;7175;51.978;5.330;2023-04-28T02:13:24;19.93;;;18.53;;
14187;SDS011;7175;51.978;5.330;2023-04-28T02:15:53;20.93;;;19.53;;
14187;SDS011;7175;51.978;5.330;2023-04-28T02:18:21;20.73;;;19.33;;
14187;SDS011;7175;51.978;5.330;2023-04-28T02:20:49;19.70;;;18.30;;
14187;SDS011;7175;51.978;5.330;2023-04-28T02:23:17;20.10;;;18.60;;
14187;SDS011;7175;51.978;5.330;2023-04-28T02:25:45;19.93;;;18.53;;
14187;SDS011;7175;51.978;5.330;2023-04-28T02:28:13;20.13;;;18.73;;
14187;SDS011;7175;51.978;5.330;2023-04-28T02:30:41;20.13;;;18.83;;
14187;SDS011;7175;51.978;5.330;2023-04-28T02:33:10;20.57;;;19.17;;
14187;SDS011;7175;51.978;5.330;2023-04-28T02:35:38;19.67;;;18.37;;
14187;SDS011;7175;51.978;5.330;2023-04-28T02:38:06;19.27;;;18.00;;
14187;SDS011;7175;51.978;5.330;2023-04-28T02:40:34;19.50;;;18.20;;
14187;SDS011;7175;51.978;5.330;2023-04-28T02:43:01;19.90;;;18.60;;
14187;SDS011;7175;51.978;5.330;2023-04-28T02:45:29;19.60;;;18.30;;
14187;SDS011;7175;51.978;5.330;2023-04-28T02:47:58;19.67;;;18.37;;
14187;SDS011;7175;51.978;5.330;2023-04-28T02:50:30;19.30;;;18.00;;
14187;SDS011;7175;51.978;5.330;2023-04-28T02:52:58;19.50;;;18.20;;
14187;SDS011;7175;51.978;5.330;2023-04-28T02:55:26;19.10;;;17.90;;
14187;SDS011;7175;51.978;5.330;2023-04-28T02:57:54;19.70;;;18.40;;
14187;SDS011;7175;51.978;5.330;2023-04-28T03:00:22;19.20;;;18.00;;
14187;SDS011;7175;51.978;5.330;2023-04-28T03:02:50;19.50;;;18.20;;
14187;SDS011;7175;51.978;5.330;2023-04-28T03:05:18;19.73;;;18.43;;
14187;SDS011;7175;51.978;5.330;2023-04-28T03:07:47;20.00;;;18.70;;
14187;SDS011;7175;51.978;5.330;2023-04-28T03:10:15;20.07;;;18.77;;
14187;SDS011;7175;51.978;5.330;2023-04-28T03:12:43;19.77;;;18.47;;
14187;SDS011;7175;51.978;5.330;2023-04-28T03:15:11;19.67;;;18.37;;
14187;SDS011;7175;51.978;5.330;2023-04-28T03:17:39;19.20;;;18.00;;
14187;SDS011;7175;51.978;5.330;2023-04-28T03:20:08;19.00;;;17.80;;
14187;SDS011;7175;51.978;5.330;2023-04-28T03:22:38;19.87;;;18.57;;
14187;SDS011;7175;51.978;5.330;2023-04-28T03:25:07;18.90;;;17.70;;
14187;SDS011;7175;51.978;5.330;2023-04-28T03:27:36;19.20;;;18.00;;
14187;SDS011;7175;51.978;5.330;2023-04-28T03:30:05;21.97;;;20.30;;
14187;SDS011;7175;51.978;5.330;2023-04-28T03:32:34;20.03;;;18.73;;
14187;SDS011;7175;51.978;5.330;2023-04-28T03:35:02;20.13;;;18.73;;
14187;SDS011;7175;51.978;5.330;2023-04-28T03:37:30;20.10;;;18.80;;
14187;SDS011;7175;51.978;5.330;2023-04-28T03:39:58;19.57;;;18.23;;
14187;SDS011;7175;51.978;5.330;2023-04-28T03:42:27;20.00;;;18.60;;
14187;SDS011;7175;51.978;5.330;2023-04-28T03:44:55;19.90;;;18.50;;
14187;SDS011;7175;51.978;5.330;2023-04-28T03:47:23;20.20;;;18.80;;
14187;SDS011;7175;51.978;5.330;2023-04-28T03:49:51;21.00;;;19.50;;
14187;SDS011;7175;51.978;5.330;2023-04-28T03:52:19;20.23;;;18.83;;
14187;SDS011;7175;51.978;5.330;2023-04-28T03:54:47;20.07;;;18.67;;
14187;SDS011;7175;51.978;5.330;2023-04-28T03:57:14;19.43;;;18.13;;
14187;SDS011;7175;51.978;5.330;2023-04-28T03:59:44;20.20;;;18.80;;
14187;SDS011;7175;51.978;5.330;2023-04-28T04:02:12;19.73;;;18.43;;
14187;SDS011;7175;51.978;5.330;2023-04-28T04:04:40;19.90;;;18.60;;
14187;SDS011;7175;51.978;5.330;2023-04-28T04:07:12;20.40;;;19.10;;
14187;SDS011;7175;51.978;5.330;2023-04-28T04:09:40;21.03;;;19.63;;
14187;SDS011;7175;51.978;5.330;2023-04-28T04:12:08;20.43;;;19.03;;
14187;SDS011;7175;51.978;5.330;2023-04-28T04:14:35;20.00;;;18.70;;
14187;SDS011;7175;51.978;5.330;2023-04-28T04:17:05;20.20;;;18.90;;
14187;SDS011;7175;51.978;5.330;2023-04-28T04:19:33;20.10;;;18.80;;
14187;SDS011;7175;51.978;5.330;2023-04-28T04:22:01;19.70;;;18.40;;
14187;SDS011;7175;51.978;5.330;2023-04-28T04:24:29;20.13;;;18.83;;
14187;SDS011;7175;51.978;5.330;2023-04-28T04:26:57;20.83;;;19.53;;
14187;SDS011;7175;51.978;5.330;2023-04-28T04:29:25;22.20;;;20.70;;
14187;SDS011;7175;51.978;5.330;2023-04-28T04:31:53;20.60;;;19.20;;
14187;SDS011;7175;51.978;5.330;2023-04-28T04:34:22;20.20;;;18.80;;
14187;SDS011;7175;51.978;5.330;2023-04-28T04:36:50;20.43;;;19.03;;
14187;SDS011;7175;51.978;5.330;2023-04-28T04:39:18;19.83;;;18.43;;
14187;SDS011;7175;51.978;5.330;2023-04-28T04:41:46;19.50;;;18.10;;
14187;SDS011;7175;51.978;5.330;2023-04-28T04:44:14;20.20;;;18.77;;
14187;SDS011;7175;51.978;5.330;2023-04-28T04:46:42;19.87;;;18.43;;
14187;SDS011;7175;51.978;5.330;2023-04-28T04:49:10;20.90;;;19.03;;
14187;SDS011;7175;51.978;5.330;2023-04-28T04:51:39;19.23;;;17.83;;
14187;SDS011;7175;51.978;5.330;2023-04-28T04:54:07;18.60;;;17.27;;
14187;SDS011;7175;51.978;5.330;2023-04-28T04:56:35;18.57;;;17.27;;
14187;SDS011;7175;51.978;5.330;2023-04-28T04:59:04;18.87;;;17.57;;
14187;SDS011;7175;51.978;5.330;2023-04-28T05:01:31;19.60;;;18.10;;
14187;SDS011;7175;51.978;5.330;2023-04-28T05:03:59;19.50;;;18.10;;
14187;SDS011;7175;51.978;5.330;2023-04-28T05:06:28;19.80;;;18.40;;
14187;SDS011;7175;51.978;5.330;2023-04-28T05:08:57;19.83;;;18.33;;
14187;SDS011;7175;51.978;5.330;2023-04-28T05:11:25;19.20;;;17.90;;
14187;SDS011;7175;51.978;5.330;2023-04-28T05:13:53;19.40;;;18.00;;
14187;SDS011;7175;51.978;5.330;2023-04-28T05:16:21;19.10;;;17.70;;
14187;SDS011;7175;51.978;5.330;2023-04-28T05:18:49;19.50;;;18.10;;
14187;SDS011;7175;51.978;5.330;2023-04-28T05:21:17;21.00;;;19.47;;
14187;SDS011;7175;51.978;5.330;2023-04-28T05:23:45;20.10;;;18.70;;
14187;SDS011;7175;51.978;5.330;2023-04-28T05:26:14;19.90;;;18.47;;
14187;SDS011;7175;51.978;5.330;2023-04-28T05:28:43;19.10;;;17.80;;
14187;SDS011;7175;51.978;5.330;2023-04-28T05:31:11;22.47;;;20.87;;
14187;SDS011;7175;51.978;5.330;2023-04-28T05:33:39;19.50;;;18.10;;
14187;SDS011;7175;51.978;5.330;2023-04-28T05:36:07;19.60;;;18.20;;
14187;SDS011;7175;51.978;5.330;2023-04-28T05:38:36;21.10;;;19.60;;
14187;SDS011;7175;51.978;5.330;2023-04-28T05:41:04;20.33;;;18.93;;
14187;SDS011;7175;51.978;5.330;2023-04-28T05:43:33;23.10;;;21.40;;
14187;SDS011;7175;51.978;5.330;2023-04-28T05:46:02;24.10;;;22.30;;
14187;SDS011;7175;51.978;5.330;2023-04-28T05:48:44;23.57;;;21.87;;
14187;SDS011;7175;51.978;5.330;2023-04-28T05:51:12;25.80;;;23.90;;
14187;SDS011;7175;51.978;5.330;2023-04-28T05:53:40;27.00;;;24.70;;
14187;SDS011;7175;51.978;5.330;2023-04-28T05:56:08;28.63;;;26.53;;
14187;SDS011;7175;51.978;5.330;2023-04-28T05:58:38;28.37;;;26.27;;
14187;SDS011;7175;51.978;5.330;2023-04-28T06:01:06;30.30;;;28.10;;
14187;SDS011;7175;51.978;5.330;2023-04-28T06:03:34;30.73;;;28.47;;
14187;SDS011;7175;51.978;5.330;2023-04-28T06:06:03;34.00;;;31.33;;
14187;SDS011;7175;51.978;5.330;2023-04-28T06:08:35;34.30;;;31.90;;
14187;SDS011;7175;51.978;5.330;2023-04-28T06:11:03;37.93;;;35.33;;
14187;SDS011;7175;51.978;5.330;2023-04-28T06:13:31;40.27;;;37.47;;
14187;SDS011;7175;51.978;5.330;2023-04-28T06:16:01;44.23;;;41.07;;
14187;SDS011;7175;51.978;5.330;2023-04-28T06:18:29;41.60;;;38.73;;
14187;SDS011;7175;51.978;5.330;2023-04-28T06:20:58;42.30;;;39.40;;
14187;SDS011;7175;51.978;5.330;2023-04-28T06:23:26;42.13;;;39.23;;
14187;SDS011;7175;51.978;5.330;2023-04-28T06:25:54;44.37;;;41.37;;
14187;SDS011;7175;51.978;5.330;2023-04-28T06:28:22;45.23;;;42.13;;
14187;SDS011;7175;51.978;5.330;2023-04-28T06:30:50;46.77;;;43.57;;
14187;SDS011;7175;51.978;5.330;2023-04-28T06:33:19;44.80;;;41.63;;
14187;SDS011;7175;51.978;5.330;2023-04-28T06:35:47;47.97;;;44.67;;
14187;SDS011;7175;51.978;5.330;2023-04-28T06:38:15;49.60;;;46.20;;
14187;SDS011;7175;51.978;5.330;2023-04-28T06:40:43;47.40;;;44.10;;
14187;SDS011;7175;51.978;5.330;2023-04-28T06:43:11;46.87;;;43.57;;
14187;SDS011;7175;51.978;5.330;2023-04-28T06:45:40;47.63;;;44.33;;
14187;SDS011;7175;51.978;5.330;2023-04-28T06:48:08;50.40;;;46.50;;
14187;SDS011;7175;51.978;5.330;2023-04-28T06:50:38;47.03;;;43.73;;
14187;SDS011;7175;51.978;5.330;2023-04-28T06:53:08;46.43;;;43.17;;
14187;SDS011;7175;51.978;5.330;2023-04-28T06:55:37;47.67;;;44.37;;
14187;SDS011;7175;51.978;5.330;2023-04-28T06:58:08;46.83;;;43.53;;
14187;SDS011;7175;51.978;5.330;2023-04-28T07:00:38;48.93;;;45.53;;
14187;SDS011;7175;51.978;5.330;2023-04-28T07:03:08;45.77;;;42.47;;
14187;SDS011;7175;51.978;5.330;2023-04-28T07:05:38;47.00;;;43.60;;
14187;SDS011;7175;51.978;5.330;2023-04-28T07:08:07;47.70;;;44.20;;
14187;SDS011;7175;51.978;5.330;2023-04-28T07:10:35;51.53;;;47.80;;
14187;SDS011;7175;51.978;5.330;2023-04-28T07:13:04;49.93;;;46.43;;
14187;SDS011;7175;51.978;5.330;2023-04-28T07:15:34;52.87;;;49.20;;
14187;SDS011;7175;51.978;5.330;2023-04-28T07:18:02;50.17;;;46.67;;
14187;SDS011;7175;51.978;5.330;2023-04-28T07:20:31;48.63;;;45.17;;
14187;SDS011;7175;51.978;5.330;2023-04-28T07:23:02;50.80;;;47.30;;
14187;SDS011;7175;51.978;5.330;2023-04-28T07:25:30;49.23;;;45.83;;
14187;SDS011;7175;51.978;5.330;2023-04-28T07:27:58;47.67;;;44.37;;
14187;SDS011;7175;51.978;5.330;2023-04-28T07:30:29;48.20;;;44.80;;
14187;SDS011;7175;51.978;5.330;2023-04-28T07:32:57;44.83;;;41.63;;
14187;SDS011;7175;51.978;5.330;2023-04-28T07:35:25;42.67;;;39.57;;
14187;SDS011;7175;51.978;5.330;2023-04-28T07:37:53;43.73;;;40.63;;
14187;SDS011;7175;51.978;5.330;2023-04-28T07:40:24;42.47;;;39.47;;
14187;SDS011;7175;51.978;5.330;2023-04-28T07:42:52;46.77;;;43.30;;
14187;SDS011;7175;51.978;5.330;2023-04-28T07:45:20;41.93;;;38.93;;
14187;SDS011;7175;51.978;5.330;2023-04-28T07:47:48;42.73;;;39.53;;
14187;SDS011;7175;51.978;5.330;2023-04-28T07:50:16;40.90;;;37.90;;
14187;SDS011;7175;51.978;5.330;2023-04-28T07:52:44;37.13;;;34.27;;
14187;SDS011;7175;51.978;5.330;2023-04-28T07:55:12;34.83;;;32.03;;
14187;SDS011;7175;51.978;5.330;2023-04-28T07:57:41;35.00;;;32.20;;
14187;SDS011;7175;51.978;5.330;2023-04-28T08:00:09;33.43;;;30.77;;
14187;SDS011;7175;51.978;5.330;2023-04-28T08:02:38;34.70;;;32.00;;
14187;SDS011;7175;51.978;5.330;2023-04-28T08:05:06;34.70;;;31.93;;
14187;SDS011;7175;51.978;5.330;2023-04-28T08:07:36;34.13;;;31.43;;
14187;SDS011;7175;51.978;5.330;2023-04-28T08:10:04;34.80;;;32.00;;
14187;SDS011;7175;51.978;5.330;2023-04-28T08:12:34;33.23;;;30.53;;
14187;SDS011;7175;51.978;5.330;2023-04-28T08:15:04;37.57;;;34.63;;
14187;SDS011;7175;51.978;5.330;2023-04-28T08:17:33;38.43;;;35.53;;
14187;SDS011;7175;51.978;5.330;2023-04-28T08:20:01;40.43;;;37.43;;
14187;SDS011;7175;51.978;5.330;2023-04-28T08:22:31;45.27;;;41.87;;
14187;SDS011;7175;51.978;5.330;2023-04-28T08:24:59;45.97;;;42.57;;
14187;SDS011;7175;51.978;5.330;2023-04-28T08:27:27;47.93;;;44.33;;
14187;SDS011;7175;51.978;5.330;2023-04-28T08:29:55;48.17;;;44.47;;
14187;SDS011;7175;51.978;5.330;2023-04-28T08:32:25;51.53;;;47.63;;
14187;SDS011;7175;51.978;5.330;2023-04-28T08:34:53;52.93;;;48.83;;
14187;SDS011;7175;51.978;5.330;2023-04-28T08:37:21;52.10;;;47.90;;
14187;SDS011;7175;51.978;5.330;2023-04-28T08:39:50;53.50;;;49.20;;
14187;SDS011;7175;51.978;5.330;2023-04-28T08:42:25;56.70;;;52.30;;
14187;SDS011;7175;51.978;5.330;2023-04-28T08:44:56;56.67;;;52.27;;
14187;SDS011;7175;51.978;5.330;2023-04-28T08:47:29;56.67;;;52.13;;
14187;SDS011;7175;51.978;5.330;2023-04-28T08:50:03;53.57;;;49.17;;
14187;SDS011;7175;51.978;5.330;2023-04-28T08:52:33;56.77;;;52.27;;
14187;SDS011;7175;51.978;5.330;2023-04-28T08:55:04;57.77;;;53.17;;
14187;SDS011;7175;51.978;5.330;2023-04-28T08:57:34;61.00;;;56.20;;
14187;SDS011;7175;51.978;5.330;2023-04-28T09:00:07;59.80;;;55.20;;
14187;SDS011;7175;51.978;5.330;2023-04-28T09:02:37;51.17;;;47.07;;
14187;SDS011;7175;51.978;5.330;2023-04-28T09:05:08;58.90;;;54.20;;
14187;SDS011;7175;51.978;5.330;2023-04-28T09:07:37;59.33;;;54.93;;
14187;SDS011;7175;51.978;5.330;2023-04-28T09:10:15;55.57;;;51.27;;
14187;SDS011;7175;51.978;5.330;2023-04-28T09:12:46;54.50;;;50.20;;
14187;SDS011;7175;51.978;5.330;2023-04-28T09:15:24;56.43;;;52.13;;
14187;SDS011;7175;51.978;5.330;2023-04-28T09:17:54;56.73;;;52.33;;
14187;SDS011;7175;51.978;5.330;2023-04-28T09:20:23;58.37;;;53.97;;
14187;SDS011;7175;51.978;5.330;2023-04-28T09:22:53;60.23;;;55.63;;
14187;SDS011;7175;51.978;5.330;2023-04-28T09:25:22;62.10;;;57.40;;
14187;SDS011;7175;51.978;5.330;2023-04-28T09:27:52;63.27;;;58.37;;
14187;SDS011;7175;51.978;5.330;2023-04-28T09:30:31;65.20;;;60.23;;
14187;SDS011;7175;51.978;5.330;2023-04-28T09:33:06;64.80;;;59.83;;
14187;SDS011;7175;51.978;5.330;2023-04-28T09:35:41;61.27;;;56.47;;
14187;SDS011;7175;51.978;5.330;2023-04-28T09:38:12;68.47;;;63.37;;
14187;SDS011;7175;51.978;5.330;2023-04-28T09:40:50;65.77;;;60.70;;
14187;SDS011;7175;51.978;5.330;2023-04-28T09:43:26;66.70;;;61.57;;
14187;SDS011;7175;51.978;5.330;2023-04-28T09:45:57;64.27;;;59.27;;
14187;SDS011;7175;51.978;5.330;2023-04-28T09:48:29;68.23;;;63.13;;
14187;SDS011;7175;51.978;5.330;2023-04-28T09:50:59;66.40;;;61.40;;
14187;SDS011;7175;51.978;5.330;2023-04-28T09:53:28;65.20;;;60.20;;
14187;SDS011;7175;51.978;5.330;2023-04-28T09:55:57;64.47;;;59.50;;
14187;SDS011;7175;51.978;5.330;2023-04-28T09:58:28;65.37;;;60.37;;
14187;SDS011;7175;51.978;5.330;2023-04-28T10:00:58;62.83;;;58.03;;
14187;SDS011;7175;51.978;5.330;2023-04-28T10:03:29;58.83;;;54.23;;
14187;SDS011;7175;51.978;5.330;2023-04-28T10:05:59;59.87;;;55.17;;
14187;SDS011;7175;51.978;5.330;2023-04-28T10:08:29;62.50;;;57.50;;
14187;SDS011;7175;51.978;5.330;2023-04-28T10:10:59;59.43;;;54.97;;
14187;SDS011;7175;51.978;5.330;2023-04-28T10:13:28;60.57;;;56.07;;
14187;SDS011;7175;51.978;5.330;2023-04-28T10:15:57;60.27;;;55.80;;
14187;SDS011;7175;51.978;5.330;2023-04-28T10:18:26;58.00;;;53.60;;
14187;SDS011;7175;51.978;5.330;2023-04-28T10:20:59;60.97;;;56.47;;
14187;SDS011;7175;51.978;5.330;2023-04-28T10:26:26;60.73;;;56.23;;
14187;SDS011;7175;51.978;5.330;2023-04-28T10:29:21;62.43;;;57.83;;
14187;SDS011;7175;51.978;5.330;2023-04-28T10:34:50;63.43;;;58.77;;
14187;SDS011;7175;51.978;5.330;2023-04-28T10:37:19;58.73;;;54.33;;
14187;SDS011;7175;51.978;5.330;2023-04-28T10:43:00;59.10;;;54.70;;
14187;SDS011;7175;51.978;5.330;2023-04-28T10:48:52;56.53;;;52.07;;
14187;SDS011;7175;51.978;5.330;2023-04-28T10:51:32;60.33;;;55.83;;
14187;SDS011;7175;51.978;5.330;2023-04-28T10:54:13;60.20;;;55.70;;
14187;SDS011;7175;51.978;5.330;2023-04-28T10:59:46;56.47;;;52.17;;
14187;SDS011;7175;51.978;5.330;2023-04-28T11:05:13;56.70;;;52.40;;
14187;SDS011;7175;51.978;5.330;2023-04-28T11:17:01;60.40;;;55.90;;
14187;SDS011;7175;51.978;5.330;2023-04-28T11:19:30;66.50;;;61.33;;
14187;SDS011;7175;51.978;5.330;2023-04-28T11:22:00;62.00;;;57.50;;
14187;SDS011;7175;51.978;5.330;2023-04-28T11:24:29;57.50;;;53.20;;
14187;SDS011;7175;51.978;5.330;2023-04-28T11:26:59;58.47;;;54.17;;
14187;SDS011;7175;51.978;5.330;2023-04-28T11:29:31;54.77;;;50.80;;
14187;SDS011;7175;51.978;5.330;2023-04-28T11:32:00;50.70;;;46.90;;
14187;SDS011;7175;51.978;5.330;2023-04-28T11:34:30;51.10;;;47.30;;
14187;SDS011;7175;51.978;5.330;2023-04-28T11:36:58;48.83;;;45.23;;
14187;SDS011;7175;51.978;5.330;2023-04-28T11:39:27;51.53;;;47.73;;
14187;SDS011;7175;51.978;5.330;2023-04-28T11:41:58;46.50;;;43.10;;
14187;SDS011;7175;51.978;5.330;2023-04-28T11:44:28;42.37;;;39.27;;
14187;SDS011;7175;51.978;5.330;2023-04-28T11:46:58;41.70;;;38.70;;
14187;SDS011;7175;51.978;5.330;2023-04-28T11:49:29;43.87;;;40.77;;
14187;SDS011;7175;51.978;5.330;2023-04-28T11:52:03;40.60;;;37.60;;
14187;SDS011;7175;51.978;5.330;2023-04-28T11:54:31;37.27;;;34.47;;
14187;SDS011;7175;51.978;5.330;2023-04-28T11:57:01;35.70;;;33.00;;
14187;SDS011;7175;51.978;5.330;2023-04-28T11:59:30;31.93;;;29.43;;
14187;SDS011;7175;51.978;5.330;2023-04-28T12:02:00;31.50;;;29.00;;
14187;SDS011;7175;51.978;5.330;2023-04-28T12:04:30;31.30;;;28.80;;
14187;SDS011;7175;51.978;5.330;2023-04-28T12:07:03;31.83;;;29.23;;
14187;SDS011;7175;51.978;5.330;2023-04-28T12:09:32;29.30;;;26.90;;
14187;SDS011;7175;51.978;5.330;2023-04-28T12:12:03;25.43;;;23.33;;
14187;SDS011;7175;51.978;5.330;2023-04-28T12:14:32;27.73;;;25.43;;
14187;SDS011;7175;51.978;5.330;2023-04-28T12:17:23;27.60;;;25.40;;
14187;SDS011;7175;51.978;5.330;2023-04-28T12:19:52;28.00;;;25.80;;
14187;SDS011;7175;51.978;5.330;2023-04-28T12:22:21;30.73;;;28.23;;
14187;SDS011;7175;51.978;5.330;2023-04-28T12:25:03;29.10;;;26.80;;
14187;SDS011;7175;51.978;5.330;2023-04-28T12:27:37;29.17;;;26.77;;
14187;SDS011;7175;51.978;5.330;2023-04-28T12:30:24;30.70;;;28.20;;
14187;SDS011;7175;51.978;5.330;2023-04-28T12:32:55;29.80;;;27.50;;
14187;SDS011;7175;51.978;5.330;2023-04-28T12:35:24;29.43;;;27.13;;
14187;SDS011;7175;51.978;5.330;2023-04-28T12:37:54;30.10;;;27.80;;
14187;SDS011;7175;51.978;5.330;2023-04-28T12:40:24;32.13;;;29.63;;
14187;SDS011;7175;51.978;5.330;2023-04-28T12:42:54;32.87;;;30.37;;
14187;SDS011;7175;51.978;5.330;2023-04-28T12:45:23;34.10;;;31.50;;
14187;SDS011;7175;51.978;5.330;2023-04-28T12:47:52;35.50;;;32.90;;
14187;SDS011;7175;51.978;5.330;2023-04-28T12:50:20;37.07;;;34.27;;
14187;SDS011;7175;51.978;5.330;2023-04-28T12:52:49;38.43;;;35.53;;
14187;SDS011;7175;51.978;5.330;2023-04-28T12:55:18;35.70;;;33.00;;
14187;SDS011;7175;51.978;5.330;2023-04-28T12:57:47;34.77;;;32.07;;
14187;SDS011;7175;51.978;5.330;2023-04-28T13:00:17;34.03;;;31.33;;
14187;SDS011;7175;51.978;5.330;2023-04-28T13:02:48;35.20;;;32.50;;
14187;SDS011;7175;51.978;5.330;2023-04-28T13:05:17;34.23;;;31.63;;
14187;SDS011;7175;51.978;5.330;2023-04-28T13:07:46;33.20;;;30.50;;
14187;SDS011;7175;51.978;5.330;2023-04-28T13:10:17;35.10;;;32.40;;
14187;SDS011;7175;51.978;5.330;2023-04-28T13:12:46;33.13;;;30.60;;
14187;SDS011;7175;51.978;5.330;2023-04-28T13:15:16;32.50;;;29.90;;
14187;SDS011;7175;51.978;5.330;2023-04-28T13:17:45;32.27;;;29.77;;
14187;SDS011;7175;51.978;5.330;2023-04-28T13:20:15;33.47;;;30.87;;
14187;SDS011;7175;51.978;5.330;2023-04-28T13:22:43;33.33;;;30.73;;
14187;SDS011;7175;51.978;5.330;2023-04-28T13:25:12;32.80;;;30.20;;
14187;SDS011;7175;51.978;5.330;2023-04-28T13:27:41;33.17;;;30.53;;
14187;SDS011;7175;51.978;5.330;2023-04-28T13:30:10;35.57;;;32.73;;
14187;SDS011;7175;51.978;5.330;2023-04-28T13:32:43;34.80;;;32.00;;
14187;SDS011;7175;51.978;5.330;2023-04-28T13:35:12;37.17;;;34.27;;
14187;SDS011;7175;51.978;5.330;2023-04-28T13:37:42;36.67;;;33.87;;
14187;SDS011;7175;51.978;5.330;2023-04-28T13:40:13;35.97;;;33.17;;
14187;SDS011;7175;51.978;5.330;2023-04-28T13:42:43;35.67;;;32.87;;
14187;SDS011;7175;51.978;5.330;2023-04-28T13:45:13;35.90;;;33.10;;
14187;SDS011;7175;51.978;5.330;2023-04-28T13:47:45;33.77;;;31.07;;
14187;SDS011;7175;51.978;5.330;2023-04-28T13:50:15;34.40;;;31.70;;
14187;SDS011;7175;51.978;5.330;2023-04-28T13:52:44;33.70;;;31.10;;
14187;SDS011;7175;51.978;5.330;2023-04-28T13:55:14;33.60;;;30.90;;
14187;SDS011;7175;51.978;5.330;2023-04-28T13:57:43;33.57;;;30.97;;
14187;SDS011;7175;51.978;5.330;2023-04-28T14:00:13;33.70;;;31.10;;
14187;SDS011;7175;51.978;5.330;2023-04-28T14:02:47;33.67;;;31.07;;
14187;SDS011;7175;51.978;5.330;2023-04-28T14:05:16;35.40;;;32.70;;
14187;SDS011;7175;51.978;5.330;2023-04-28T14:07:45;36.10;;;33.30;;
14187;SDS011;7175;51.978;5.330;2023-04-28T14:10:14;40.03;;;37.00;;
14187;SDS011;7175;51.978;5.330;2023-04-28T14:12:45;39.63;;;36.63;;
14187;SDS011;7175;51.978;5.330;2023-04-28T14:15:14;39.50;;;36.50;;
14187;SDS011;7175;51.978;5.330;2023-04-28T14:17:45;39.20;;;36.20;;
14187;SDS011;7175;51.978;5.330;2023-04-28T14:20:16;41.70;;;38.50;;
14187;SDS011;7175;51.978;5.330;2023-04-28T14:22:46;45.40;;;42.00;;
14187;SDS011;7175;51.978;5.330;2023-04-28T14:25:16;46.80;;;43.30;;
14187;SDS011;7175;51.978;5.330;2023-04-28T14:27:48;48.43;;;44.87;;
14187;SDS011;7175;51.978;5.330;2023-04-28T14:30:18;48.50;;;44.87;;
14187;SDS011;7175;51.978;5.330;2023-04-28T14:32:51;49.00;;;45.20;;
14187;SDS011;7175;51.978;5.330;2023-04-28T14:35:21;51.87;;;47.97;;
14187;SDS011;7175;51.978;5.330;2023-04-28T14:37:50;47.83;;;44.13;;
14187;SDS011;7175;51.978;5.330;2023-04-28T14:40:21;47.23;;;43.63;;
14187;SDS011;7175;51.978;5.330;2023-04-28T14:42:50;46.93;;;43.40;;
14187;SDS011;7175;51.978;5.330;2023-04-28T14:45:21;45.10;;;41.60;;
14187;SDS011;7175;51.978;5.330;2023-04-28T14:47:51;44.03;;;40.73;;
14187;SDS011;7175;51.978;5.330;2023-04-28T14:50:21;46.03;;;42.63;;
14187;SDS011;7175;51.978;5.330;2023-04-28T14:52:50;46.17;;;42.67;;
14187;SDS011;7175;51.978;5.330;2023-04-28T14:55:19;48.70;;;45.10;;
14187;SDS011;7175;51.978;5.330;2023-04-28T14:57:48;45.27;;;41.87;;
14187;SDS011;7175;51.978;5.330;2023-04-28T15:00:18;48.87;;;45.23;;
14187;SDS011;7175;51.978;5.330;2023-04-28T15:02:47;47.83;;;44.23;;
14187;SDS011;7175;51.978;5.330;2023-04-28T15:05:18;48.37;;;44.77;;
14187;SDS011;7175;51.978;5.330;2023-04-28T15:07:47;48.67;;;45.00;;
14187;SDS011;7175;51.978;5.330;2023-04-28T15:10:16;49.17;;;45.47;;
14187;SDS011;7175;51.978;5.330;2023-04-28T15:12:46;51.30;;;47.40;;
14187;SDS011;7175;51.978;5.330;2023-04-28T15:15:15;54.97;;;50.77;;